Time,TemperatureF,DewpointF,PressureIn,WindDirection,WindDirectionDegrees,WindSpeedMPH,WindSpeedGustMPH,Humidity,HourlyPrecipIn,Conditions,Clouds,dailyrainin,SoftwareType,DateUTC
2013-06-24 00:10:00,70.9,69.0,30.07,SW,233,0.0,3.0,93,0.00,,,0.00,weatherlink.com 1.10,2013-06-24 04:10:00,
2013-06-24 00:25:00,70.9,69.0,30.07,West,259,1.0,3.0,93,0.00,,,0.00,weatherlink.com 1.10,2013-06-24 04:25:00,
2013-06-24 00:40:00,70.7,69.0,30.07,SW,235,1.0,5.0,93,0.00,,,0.00,weatherlink.com 1.10,2013-06-24 04:40:00,
2013-06-24 00:55:00,70.6,69.0,30.07,SSW,192,1.0,3.0,94,0.00,,,0.00,weatherlink.com 1.10,2013-06-24 04:55:00,
2013-06-24 01:10:00,70.6,69.0,30.06,SSW,199,1.0,3.0,94,0.00,,,0.00,weatherlink.com 1.10,2013-06-24 05:10:00,
2013-06-24 01:25:00,70.4,69.0,30.06,SSE,155,1.0,6.0,94,0.00,,,0.00,weatherlink.com 1.10,2013-06-24 05:25:00,
2013-06-24 01:55:00,70.2,69.0,30.05,WSW,243,1.0,4.0,94,0.00,,,0.00,weatherlink.com 1.10,2013-06-24 05:55:00,
2013-06-24 02:10:00,69.9,69.0,30.05,SSW,202,1.0,6.0,95,0.00,,,0.00,weatherlink.com 1.10,2013-06-24 06:10:00,
2013-06-24 02:24:00,69.8,68.0,30.05,SW,236,6.0,6.0,95,0.00,,,0.00,weatherlink.com 1.10,2013-06-24 06:24:00,
2013-06-24 02:55:00,69.4,68.0,30.05,WSW,245,0.0,4.0,95,0.00,,,0.00,weatherlink.com 1.10,2013-06-24 06:55:00,
2013-06-24 03:25:00,69.2,68.0,30.05,SW,219,2.0,3.0,96,0.00,,,0.00,weatherlink.com 1.10,2013-06-24 07:25:00,
2013-06-24 03:40:00,69.1,68.0,30.04,SSE,160,2.0,2.0,96,0.00,,,0.00,weatherlink.com 1.10,2013-06-24 07:40:00,
2013-06-24 04:10:00,68.9,68.0,30.04,SSW,200,0.0,2.0,96,0.00,,,0.00,weatherlink.com 1.10,2013-06-24 08:10:00,
2013-06-24 04:24:00,68.8,68.0,30.03,SW,219,0.0,2.0,96,0.00,,,0.00,weatherlink.com 1.10,2013-06-24 08:24:00,
2013-06-24 04:55:00,68.9,68.0,30.03,SE,131,1.0,1.0,96,0.00,,,0.00,weatherlink.com 1.10,2013-06-24 08:55:00,
2013-06-24 05:10:00,69.0,68.0,30.03,South,171,0.0,3.0,96,0.00,,,0.00,weatherlink.com 1.10,2013-06-24 09:10:00,
2013-06-24 05:25:00,68.9,68.0,30.03,South,169,2.0,4.0,96,0.00,,,0.00,weatherlink.com 1.10,2013-06-24 09:25:00,
2013-06-24 05:40:00,68.7,68.0,30.02,SSE,162,1.0,4.0,96,0.00,,,0.00,weatherlink.com 1.10,2013-06-24 09:40:00,
2013-06-24 05:55:00,68.3,67.0,30.02,SW,222,2.0,3.0,96,0.00,,,0.00,weatherlink.com 1.10,2013-06-24 09:55:00,
2013-06-24 06:25:00,68.1,67.0,30.02,South,183,0.0,4.0,97,0.00,,,0.00,weatherlink.com 1.10,2013-06-24 10:25:00,
2013-06-24 06:40:00,68.1,67.0,30.01,South,176,2.0,4.0,97,0.00,,,0.00,weatherlink.com 1.10,2013-06-24 10:40:00,
2013-06-24 06:55:00,68.4,68.0,30.01,South,188,3.0,3.0,97,0.00,,,0.00,weatherlink.com 1.10,2013-06-24 10:55:00,
2013-06-24 07:09:00,69.0,68.0,30.02,WSW,250,0.0,2.0,97,0.00,,,0.00,weatherlink.com 1.10,2013-06-24 11:09:00,
2013-06-24 07:25:00,70.0,69.0,30.02,WSW,252,0.0,2.0,96,0.00,,,0.00,weatherlink.com 1.10,2013-06-24 11:25:00,
2013-06-24 07:40:00,71.3,70.0,30.02,West,281,0.0,5.0,94,0.00,,,0.00,weatherlink.com 1.10,2013-06-24 11:40:00,
2013-06-24 07:55:00,72.1,70.0,30.02,SW,218,0.0,3.0,92,0.00,,,0.00,weatherlink.com 1.10,2013-06-24 11:55:00,
2013-06-24 08:26:00,75.4,71.0,30.02,SSW,210,2.0,3.0,87,0.00,,,0.00,weatherlink.com 1.10,2013-06-24 12:26:00,
2013-06-24 08:41:00,76.2,71.0,30.02,NW,326,2.0,3.0,85,0.00,,,0.00,weatherlink.com 1.10,2013-06-24 12:41:00,
2013-06-24 08:55:00,76.9,72.0,30.02,WNW,288,0.0,3.0,84,0.00,,,0.00,weatherlink.com 1.10,2013-06-24 12:55:00,
2013-06-24 09:11:00,77.4,72.0,30.01,WNW,287,2.0,3.0,83,0.00,,,0.00,weatherlink.com 1.10,2013-06-24 13:11:00,
2013-06-24 09:25:00,78.7,72.0,30.01,SSE,160,1.0,3.0,81,0.00,,,0.00,weatherlink.com 1.10,2013-06-24 13:25:00,
2013-06-24 09:40:00,80.0,73.0,30.00,SSW,210,3.0,3.0,78,0.00,,,0.00,weatherlink.com 1.10,2013-06-24 13:40:00,
2013-06-24 09:56:00,81.1,73.0,30.00,WSW,254,1.0,2.0,77,0.00,,,0.00,weatherlink.com 1.10,2013-06-24 13:56:00,
2013-06-24 10:11:00,82.5,74.0,30.00,South,179,2.0,4.0,75,0.00,,,0.00,weatherlink.com 1.10,2013-06-24 14:11:00,
2013-06-24 10:26:00,84.6,74.0,29.99,SSE,168,1.0,2.0,71,0.00,,,0.00,weatherlink.com 1.10,2013-06-24 14:26:00,
2013-06-24 10:41:00,85.8,75.0,29.99,South,182,2.0,2.0,70,0.00,,,0.00,weatherlink.com 1.10,2013-06-24 14:41:00,
2013-06-24 10:56:00,86.1,73.0,29.99,West,259,0.0,4.0,66,0.00,,,0.00,weatherlink.com 1.10,2013-06-24 14:56:00,
2013-06-24 11:11:00,87.3,75.0,29.99,SSE,148,0.0,4.0,67,0.00,,,0.00,weatherlink.com 1.10,2013-06-24 15:11:00,
2013-06-24 11:26:00,87.9,73.0,29.98,West,280,0.0,3.0,62,0.00,,,0.00,weatherlink.com 1.10,2013-06-24 15:26:00,
2013-06-24 11:41:00,88.1,74.0,29.98,WNW,297,0.0,4.0,63,0.00,,,0.00,weatherlink.com 1.10,2013-06-24 15:41:00,
2013-06-24 11:56:00,88.8,74.0,29.98,West,262,1.0,5.0,62,0.00,,,0.00,weatherlink.com 1.10,2013-06-24 15:56:00,
2013-06-24 12:11:00,89.2,73.0,29.98,WNW,286,1.0,4.0,60,0.00,,,0.00,weatherlink.com 1.10,2013-06-24 16:11:00,
2013-06-24 12:26:00,89.3,73.0,29.97,West,260,1.0,4.0,59,0.00,,,0.00,weatherlink.com 1.10,2013-06-24 16:26:00,
2013-06-24 12:41:00,89.3,76.0,29.97,SE,139,1.0,5.0,64,0.00,,,0.00,weatherlink.com 1.10,2013-06-24 16:41:00,
2013-06-24 12:57:00,90.2,76.0,29.97,SSW,209,1.0,4.0,63,0.00,,,0.00,weatherlink.com 1.10,2013-06-24 16:57:00,
2013-06-24 13:41:00,88.6,76.0,29.95,SSW,205,0.0,8.0,66,0.00,,,0.00,weatherlink.com 1.10,2013-06-24 17:41:00,
2013-06-24 14:12:00,89.2,76.0,29.95,SW,219,2.0,7.0,66,0.00,,,0.00,weatherlink.com 1.10,2013-06-24 18:12:00,
2013-06-24 14:27:00,89.2,76.0,29.94,SW,223,0.0,6.0,66,0.00,,,0.00,weatherlink.com 1.10,2013-06-24 18:27:00,
2013-06-24 14:42:00,88.4,76.0,29.94,SW,234,0.0,6.0,67,0.00,,,0.00,weatherlink.com 1.10,2013-06-24 18:42:00,
2013-06-24 14:57:00,89.0,76.0,29.94,SSW,203,2.0,7.0,66,0.00,,,0.00,weatherlink.com 1.10,2013-06-24 18:57:00,
2013-06-24 15:11:00,89.2,75.0,29.93,SW,214,1.0,9.0,64,0.00,,,0.00,weatherlink.com 1.10,2013-06-24 19:11:00,
2013-06-24 15:26:00,89.3,75.0,29.93,SSW,213,2.0,4.0,63,0.00,,,0.00,weatherlink.com 1.10,2013-06-24 19:26:00,
2013-06-24 15:41:00,89.3,75.0,29.92,SW,234,1.0,4.0,62,0.00,,,0.00,weatherlink.com 1.10,2013-06-24 19:41:00,
2013-06-24 15:57:00,89.3,76.0,29.91,SSE,150,4.0,4.0,64,0.00,,,0.00,weatherlink.com 1.10,2013-06-24 19:57:00,
2013-06-24 16:12:00,88.3,75.0,29.91,SSW,202,2.0,9.0,65,0.00,,,0.00,weatherlink.com 1.10,2013-06-24 20:12:00,
2013-06-24 16:26:00,88.5,75.0,29.91,SW,227,1.0,4.0,65,0.00,,,0.00,weatherlink.com 1.10,2013-06-24 20:26:00,
2013-06-24 16:57:00,87.7,74.0,29.90,SSW,210,2.0,6.0,63,0.00,,,0.00,weatherlink.com 1.10,2013-06-24 20:57:00,
2013-06-24 17:12:00,87.2,73.0,29.90,SE,135,1.0,3.0,63,0.00,,,0.00,weatherlink.com 1.10,2013-06-24 21:12:00,
2013-06-24 17:27:00,87.3,73.0,29.90,SW,222,0.0,4.0,63,0.00,,,0.00,weatherlink.com 1.10,2013-06-24 21:27:00,
2013-06-24 17:41:00,86.7,72.0,29.90,SSW,212,2.0,5.0,62,0.00,,,0.00,weatherlink.com 1.10,2013-06-24 21:41:00,
2013-06-24 17:50:00,86.2,71.6,29.90,West,260,1.0,0.0,62,0.00,,,0.00,WeatherSnoop2.2.5,2013-06-24 21:50:00,
2013-06-24 17:55:00,85.8,71.7,29.90,NW,308,1.0,0.0,63,0.00,,,0.00,WeatherSnoop2.2.5,2013-06-24 21:55:00,
2013-06-24 18:00:00,85.7,71.6,29.90,West,271,1.0,0.0,63,0.00,,,0.00,WeatherSnoop2.2.5,2013-06-24 22:00:00,
2013-06-24 18:05:00,85.7,72.1,29.90,South,187,0.0,0.0,64,0.00,,,0.00,WeatherSnoop2.2.5,2013-06-24 22:05:00,
2013-06-24 18:11:00,85.6,72.0,29.90,SSW,197,3.0,0.0,64,0.00,,,0.00,WeatherSnoop2.2.5,2013-06-24 22:11:00,
2013-06-24 18:16:00,85.4,71.8,29.90,WSW,243,0.0,0.0,64,0.00,,,0.00,WeatherSnoop2.2.5,2013-06-24 22:16:00,
2013-06-24 18:22:00,85.1,71.5,29.91,SSW,200,2.0,0.0,64,0.00,,,0.00,WeatherSnoop2.2.5,2013-06-24 22:22:00,
2013-06-24 18:27:00,85.0,71.4,29.91,SW,224,1.0,0.0,64,0.00,,,0.00,WeatherSnoop2.2.5,2013-06-24 22:27:00,
2013-06-24 18:32:00,84.9,71.3,29.91,West,262,0.0,0.0,64,0.00,,,0.00,WeatherSnoop2.2.5,2013-06-24 22:32:00,
2013-06-24 18:37:00,84.7,71.1,29.91,WSW,249,1.0,0.0,64,0.00,,,0.00,WeatherSnoop2.2.5,2013-06-24 22:37:00,
2013-06-24 18:42:00,84.4,71.3,29.91,WNW,285,2.0,0.0,65,0.00,,,0.00,WeatherSnoop2.2.5,2013-06-24 22:42:00,
2013-06-24 18:48:00,84.1,71.5,29.91,South,191,1.0,0.0,66,0.00,,,0.00,WeatherSnoop2.2.5,2013-06-24 22:48:00,
2013-06-24 18:53:00,83.8,71.2,29.91,WSW,241,1.0,0.0,66,0.00,,,0.00,WeatherSnoop2.2.5,2013-06-24 22:53:00,
2013-06-24 19:02:00,83.3,71.0,29.91,SW,236,0.0,5.0,67,0.00,,,0.00,weatherlink.com 1.10,2013-06-24 23:02:00,
2013-06-24 19:17:00,82.7,72.0,29.91,WNW,292,0.0,3.0,69,0.00,,,0.00,weatherlink.com 1.10,2013-06-24 23:17:00,
2013-06-24 19:32:00,82.4,72.0,29.91,SW,233,1.0,2.0,70,0.00,,,0.00,weatherlink.com 1.10,2013-06-24 23:32:00,
2013-06-24 19:47:00,82.1,72.0,29.91,South,188,0.0,3.0,71,0.00,,,0.00,weatherlink.com 1.10,2013-06-24 23:47:00,
2013-06-24 20:02:00,81.6,72.0,29.91,SW,235,0.0,3.0,73,0.00,,,0.00,weatherlink.com 1.10,2013-06-25 00:02:00,
2013-06-24 20:17:00,81.1,72.0,29.91,WSW,243,0.0,3.0,73,0.00,,,0.00,weatherlink.com 1.10,2013-06-25 00:17:00,
2013-06-24 20:32:00,80.7,71.0,29.91,WSW,255,0.0,3.0,73,0.00,,,0.00,weatherlink.com 1.10,2013-06-25 00:32:00,
2013-06-24 20:47:00,80.1,72.0,29.92,WSW,247,0.0,3.0,75,0.00,,,0.00,weatherlink.com 1.10,2013-06-25 00:47:00,
2013-06-24 21:02:00,79.8,72.0,29.93,NW,309,1.0,6.0,76,0.00,,,0.00,weatherlink.com 1.10,2013-06-25 01:02:00,
2013-06-24 21:17:00,80.0,71.0,29.94,West,274,6.0,10.0,74,0.00,,,0.00,weatherlink.com 1.10,2013-06-25 01:17:00,
2013-06-24 21:32:00,79.9,68.0,29.95,West,274,3.0,9.0,66,0.00,,,0.00,weatherlink.com 1.10,2013-06-25 01:32:00,
2013-06-24 21:47:00,77.8,68.0,29.96,NW,317,3.0,7.0,71,0.00,,,0.00,weatherlink.com 1.10,2013-06-25 01:47:00,
2013-06-24 22:02:00,76.8,68.0,29.96,WNW,302,1.0,4.0,74,0.00,,,0.00,weatherlink.com 1.10,2013-06-25 02:02:00,
2013-06-24 22:17:00,76.9,68.0,29.95,WNW,291,1.0,3.0,74,0.00,,,0.00,weatherlink.com 1.10,2013-06-25 02:17:00,
2013-06-24 22:32:00,76.8,68.0,29.96,SW,227,0.0,1.0,74,0.00,,,0.00,weatherlink.com 1.10,2013-06-25 02:32:00,
2013-06-24 22:47:00,76.4,68.0,29.96,NNW,333,0.0,4.0,75,0.00,,,0.00,weatherlink.com 1.10,2013-06-25 02:47:00,
2013-06-24 23:02:00,75.8,67.0,29.96,NW,306,0.0,1.0,75,0.00,,,0.00,weatherlink.com 1.10,2013-06-25 03:02:00,
2013-06-24 23:17:00,75.1,67.0,29.95,NW,323,0.0,0.0,77,0.00,,,0.00,weatherlink.com 1.10,2013-06-25 03:17:00,
2013-06-24 23:32:00,74.7,67.0,29.95,NW,323,0.0,0.0,78,0.00,,,0.00,weatherlink.com 1.10,2013-06-25 03:32:00,
2013-06-24 23:47:00,73.9,67.0,29.95,NW,323,0.0,0.0,80,0.00,,,0.00,weatherlink.com 1.10,2013-06-25 03:47:00,